sensor_id;sensor_type;location;lat;lon;timestamp;pressure;altitude;pressure_sealevel;temperature;humidity
62942;BME280;49042;47.318;19.874;2022-10-16T00:01:06;100956.72;;;14.02;66.50
62942;BME280;49042;47.318;19.874;2022-10-16T00:04:08;100960.44;;;13.77;67.39
62942;BME280;49042;47.318;19.874;2022-10-16T00:07:10;100958.69;;;13.77;67.71
62942;BME280;49042;47.318;19.874;2022-10-16T00:10:12;100956.75;;;13.70;68.11
62942;BME280;49042;47.318;19.874;2022-10-16T00:13:16;100955.03;;;13.70;68.34
62942;BME280;49042;47.318;19.874;2022-10-16T00:16:19;100959.47;;;13.73;68.67
62942;BME280;49042;47.318;19.874;2022-10-16T00:19:21;100964.56;;;13.67;68.19
62942;BME280;49042;47.318;19.874;2022-10-16T00:22:23;100967.41;;;13.76;67.88
62942;BME280;49042;47.318;19.874;2022-10-16T00:25:25;100969.78;;;13.67;68.40
62942;BME280;49042;47.318;19.874;2022-10-16T00:28:27;100968.84;;;13.65;68.83
62942;BME280;49042;47.318;19.874;2022-10-16T00:31:29;100973.31;;;13.67;68.38
62942;BME280;49042;47.318;19.874;2022-10-16T00:34:32;100975.75;;;13.61;69.20
62942;BME280;49042;47.318;19.874;2022-10-16T00:37:33;100968.00;;;13.66;68.90
62942;BME280;49042;47.318;19.874;2022-10-16T00:40:35;100965.81;;;13.51;69.86
62942;BME280;49042;47.318;19.874;2022-10-16T00:43:47;100959.81;;;13.55;69.58
62942;BME280;49042;47.318;19.874;2022-10-16T00:46:50;100969.75;;;13.34;69.87
62942;BME280;49042;47.318;19.874;2022-10-16T00:49:57;100962.13;;;13.42;70.13
62942;BME280;49042;47.318;19.874;2022-10-16T00:53:01;100966.38;;;13.38;70.30
62942;BME280;49042;47.318;19.874;2022-10-16T00:56:03;100968.19;;;13.41;69.81
62942;BME280;49042;47.318;19.874;2022-10-16T00:59:11;100968.13;;;13.38;69.31
62942;BME280;49042;47.318;19.874;2022-10-16T01:02:16;100973.72;;;13.20;69.44
62942;BME280;49042;47.318;19.874;2022-10-16T01:05:18;100977.44;;;13.28;69.29
62942;BME280;49042;47.318;19.874;2022-10-16T01:18:34;100982.87;;;13.36;68.90
62942;BME280;49042;47.318;19.874;2022-10-16T01:21:41;100988.84;;;13.30;71.10
62942;BME280;49042;47.318;19.874;2022-10-16T01:24:48;100991.44;;;13.28;70.12
62942;BME280;49042;47.318;19.874;2022-10-16T01:27:51;100995.41;;;13.15;70.14
62942;BME280;49042;47.318;19.874;2022-10-16T01:30:58;100996.37;;;13.19;70.00
62942;BME280;49042;47.318;19.874;2022-10-16T01:34:05;100997.78;;;13.06;70.13
62942;BME280;49042;47.318;19.874;2022-10-16T01:37:15;100995.06;;;13.03;70.10
62942;BME280;49042;47.318;19.874;2022-10-16T01:40:21;100987.16;;;13.01;70.80
62942;BME280;49042;47.318;19.874;2022-10-16T01:43:31;100995.66;;;12.94;70.89
62942;BME280;49042;47.318;19.874;2022-10-16T01:46:38;100993.50;;;12.80;72.69
62942;BME280;49042;47.318;19.874;2022-10-16T01:49:41;100995.88;;;12.72;72.68
62942;BME280;49042;47.318;19.874;2022-10-16T01:52:46;100995.31;;;12.53;73.21
62942;BME280;49042;47.318;19.874;2022-10-16T01:55:50;100996.97;;;12.51;73.48
62942;BME280;49042;47.318;19.874;2022-10-16T01:59:02;101005.69;;;12.50;73.87
62942;BME280;49042;47.318;19.874;2022-10-16T02:02:09;101007.78;;;12.35;74.37
62942;BME280;49042;47.318;19.874;2022-10-16T02:05:22;101003.03;;;12.23;75.00
62942;BME280;49042;47.318;19.874;2022-10-16T02:08:28;101012.75;;;12.27;74.55
62942;BME280;49042;47.318;19.874;2022-10-16T02:11:32;101018.09;;;12.04;76.23
62942;BME280;49042;47.318;19.874;2022-10-16T02:14:34;101025.09;;;12.05;76.20
62942;BME280;49042;47.318;19.874;2022-10-16T02:17:38;101023.22;;;12.01;76.59
62942;BME280;49042;47.318;19.874;2022-10-16T02:21:02;101025.44;;;11.89;77.37
62942;BME280;49042;47.318;19.874;2022-10-16T02:24:17;101025.44;;;11.89;76.85
62942;BME280;49042;47.318;19.874;2022-10-16T02:27:42;101032.19;;;11.58;78.60
62942;BME280;49042;47.318;19.874;2022-10-16T02:30:50;101021.44;;;11.75;78.09
62942;BME280;49042;47.318;19.874;2022-10-16T02:33:54;101028.38;;;11.48;79.63
62942;BME280;49042;47.318;19.874;2022-10-16T02:37:00;101031.47;;;11.14;81.12
62942;BME280;49042;47.318;19.874;2022-10-16T02:40:03;101026.16;;;11.36;79.90
62942;BME280;49042;47.318;19.874;2022-10-16T02:43:06;101031.94;;;11.27;80.68
62942;BME280;49042;47.318;19.874;2022-10-16T02:46:09;101024.97;;;11.28;80.76
62942;BME280;49042;47.318;19.874;2022-10-16T02:49:11;101028.56;;;11.30;80.59
62942;BME280;49042;47.318;19.874;2022-10-16T02:52:13;101028.03;;;11.16;81.45
62942;BME280;49042;47.318;19.874;2022-10-16T02:55:14;101026.34;;;11.18;81.09
62942;BME280;49042;47.318;19.874;2022-10-16T02:58:16;101028.97;;;11.18;81.12
62942;BME280;49042;47.318;19.874;2022-10-16T03:01:18;101029.41;;;11.06;81.40
62942;BME280;49042;47.318;19.874;2022-10-16T03:04:20;101027.94;;;10.68;83.61
62942;BME280;49042;47.318;19.874;2022-10-16T03:07:21;101025.41;;;10.69;83.59
62942;BME280;49042;47.318;19.874;2022-10-16T03:10:24;101031.22;;;10.85;82.71
62942;BME280;49042;47.318;19.874;2022-10-16T03:13:25;101036.31;;;10.82;82.88
62942;BME280;49042;47.318;19.874;2022-10-16T03:16:27;101038.28;;;10.88;82.64
62942;BME280;49042;47.318;19.874;2022-10-16T03:19:29;101031.56;;;10.71;83.31
62942;BME280;49042;47.318;19.874;2022-10-16T03:22:31;101044.59;;;10.71;83.24
62942;BME280;49042;47.318;19.874;2022-10-16T03:25:32;101048.03;;;10.27;85.02
62942;BME280;49042;47.318;19.874;2022-10-16T03:28:34;101058.72;;;10.34;85.20
62942;BME280;49042;47.318;19.874;2022-10-16T03:31:36;101063.19;;;10.58;83.79
62942;BME280;49042;47.318;19.874;2022-10-16T03:34:38;101067.87;;;10.45;84.20
62942;BME280;49042;47.318;19.874;2022-10-16T03:37:39;101067.87;;;10.45;84.07
62942;BME280;49042;47.318;19.874;2022-10-16T03:40:41;101074.63;;;10.40;84.89
62942;BME280;49042;47.318;19.874;2022-10-16T03:43:43;101078.81;;;10.36;84.97
62942;BME280;49042;47.318;19.874;2022-10-16T03:46:45;101087.97;;;10.26;85.45
62942;BME280;49042;47.318;19.874;2022-10-16T03:49:48;101090.00;;;9.92;86.78
62942;BME280;49042;47.318;19.874;2022-10-16T03:52:50;101085.56;;;10.11;86.30
62942;BME280;49042;47.318;19.874;2022-10-16T03:55:51;101093.38;;;10.11;85.83
62942;BME280;49042;47.318;19.874;2022-10-16T03:58:53;101097.09;;;10.16;85.37
62942;BME280;49042;47.318;19.874;2022-10-16T04:01:54;101094.87;;;10.26;84.66
62942;BME280;49042;47.318;19.874;2022-10-16T04:04:56;101109.94;;;10.12;85.10
62942;BME280;49042;47.318;19.874;2022-10-16T04:07:58;101108.37;;;9.95;85.91
62942;BME280;49042;47.318;19.874;2022-10-16T04:11:00;101097.19;;;9.98;85.61
62942;BME280;49042;47.318;19.874;2022-10-16T04:14:02;101105.69;;;9.94;85.70
62942;BME280;49042;47.318;19.874;2022-10-16T04:17:04;101107.34;;;9.92;85.21
62942;BME280;49042;47.318;19.874;2022-10-16T04:20:06;101105.16;;;9.81;85.41
62942;BME280;49042;47.318;19.874;2022-10-16T04:23:07;101112.13;;;9.82;85.56
62942;BME280;49042;47.318;19.874;2022-10-16T04:26:09;101100.75;;;9.80;85.61
62942;BME280;49042;47.318;19.874;2022-10-16T04:29:11;101107.19;;;9.69;85.51
62942;BME280;49042;47.318;19.874;2022-10-16T04:32:13;101100.44;;;9.54;86.32
62942;BME280;49042;47.318;19.874;2022-10-16T04:35:16;101090.47;;;9.63;85.48
62942;BME280;49042;47.318;19.874;2022-10-16T04:38:18;101099.62;;;9.55;85.75
62942;BME280;49042;47.318;19.874;2022-10-16T04:41:20;101102.91;;;9.51;85.94
62942;BME280;49042;47.318;19.874;2022-10-16T04:44:21;101105.72;;;9.36;86.36
62942;BME280;49042;47.318;19.874;2022-10-16T04:47:23;101112.47;;;9.32;86.47
62942;BME280;49042;47.318;19.874;2022-10-16T04:50:26;101114.44;;;8.99;88.20
62942;BME280;49042;47.318;19.874;2022-10-16T04:53:27;101116.13;;;9.17;87.35
62942;BME280;49042;47.318;19.874;2022-10-16T04:56:29;101121.84;;;9.28;86.57
62942;BME280;49042;47.318;19.874;2022-10-16T04:59:31;101112.03;;;9.23;86.98
62942;BME280;49042;47.318;19.874;2022-10-16T05:02:33;101110.78;;;9.14;87.25
62942;BME280;49042;47.318;19.874;2022-10-16T05:05:36;101117.09;;;9.01;88.37
62942;BME280;49042;47.318;19.874;2022-10-16T05:08:37;101122.38;;;9.21;86.96
62942;BME280;49042;47.318;19.874;2022-10-16T05:11:39;101122.16;;;9.16;86.83
62942;BME280;49042;47.318;19.874;2022-10-16T05:14:41;101126.25;;;9.11;86.94
62942;BME280;49042;47.318;19.874;2022-10-16T05:17:43;101130.12;;;8.83;88.60
62942;BME280;49042;47.318;19.874;2022-10-16T05:20:45;101129.16;;;8.99;87.97
62942;BME280;49042;47.318;19.874;2022-10-16T05:23:46;101138.22;;;8.89;88.57
62942;BME280;49042;47.318;19.874;2022-10-16T05:26:49;101134.87;;;8.92;88.88
62942;BME280;49042;47.318;19.874;2022-10-16T05:29:51;101142.00;;;8.96;88.82
62942;BME280;49042;47.318;19.874;2022-10-16T05:32:53;101147.81;;;8.90;89.38
62942;BME280;49042;47.318;19.874;2022-10-16T05:35:54;101144.69;;;8.97;89.24
62942;BME280;49042;47.318;19.874;2022-10-16T05:38:56;101152.66;;;9.01;89.50
62942;BME280;49042;47.318;19.874;2022-10-16T05:41:58;101147.75;;;9.07;89.33
62942;BME280;49042;47.318;19.874;2022-10-16T05:45:00;101152.72;;;9.20;88.63
62942;BME280;49042;47.318;19.874;2022-10-16T05:48:02;101155.31;;;9.77;85.47
62942;BME280;49042;47.318;19.874;2022-10-16T05:51:06;101166.91;;;10.04;83.79
62942;BME280;49042;47.318;19.874;2022-10-16T05:54:08;101172.13;;;10.44;81.70
62942;BME280;49042;47.318;19.874;2022-10-16T05:57:10;101167.00;;;10.87;79.42
62942;BME280;49042;47.318;19.874;2022-10-16T06:00:12;101176.78;;;11.14;77.63
62942;BME280;49042;47.318;19.874;2022-10-16T06:03:14;101188.16;;;11.38;76.89
62942;BME280;49042;47.318;19.874;2022-10-16T06:06:18;101187.41;;;11.63;75.18
62942;BME280;49042;47.318;19.874;2022-10-16T06:09:20;101194.91;;;12.02;74.11
62942;BME280;49042;47.318;19.874;2022-10-16T06:12:22;101191.22;;;12.19;72.49
62942;BME280;49042;47.318;19.874;2022-10-16T06:15:24;101193.50;;;12.59;71.28
62942;BME280;49042;47.318;19.874;2022-10-16T06:18:26;101193.78;;;12.42;71.75
62942;BME280;49042;47.318;19.874;2022-10-16T06:21:28;101196.16;;;12.12;73.07
62942;BME280;49042;47.318;19.874;2022-10-16T06:24:31;101212.87;;;12.65;72.17
62942;BME280;49042;47.318;19.874;2022-10-16T06:27:32;101215.34;;;12.86;71.33
62942;BME280;49042;47.318;19.874;2022-10-16T06:30:34;101225.22;;;12.95;71.19
62942;BME280;49042;47.318;19.874;2022-10-16T06:33:37;101234.06;;;12.72;72.62
62942;BME280;49042;47.318;19.874;2022-10-16T06:36:40;101233.44;;;12.53;72.05
62942;BME280;49042;47.318;19.874;2022-10-16T06:39:42;101243.03;;;11.84;75.38
62942;BME280;49042;47.318;19.874;2022-10-16T06:42:44;101237.41;;;11.73;76.88
62942;BME280;49042;47.318;19.874;2022-10-16T06:45:56;101236.72;;;11.55;78.67
62942;BME280;49042;47.318;19.874;2022-10-16T06:48:59;101239.66;;;11.63;79.54
62942;BME280;49042;47.318;19.874;2022-10-16T06:52:02;101248.19;;;11.59;79.78
62942;BME280;49042;47.318;19.874;2022-10-16T06:55:04;101248.81;;;11.52;80.38
62942;BME280;49042;47.318;19.874;2022-10-16T06:58:07;101250.66;;;11.77;80.34
62942;BME280;49042;47.318;19.874;2022-10-16T07:01:12;101251.03;;;11.87;79.66
62942;BME280;49042;47.318;19.874;2022-10-16T07:04:14;101256.25;;;12.10;79.20
62942;BME280;49042;47.318;19.874;2022-10-16T07:07:15;101260.31;;;12.25;78.97
62942;BME280;49042;47.318;19.874;2022-10-16T07:10:17;101254.09;;;12.46;76.82
62942;BME280;49042;47.318;19.874;2022-10-16T07:13:19;101252.03;;;12.88;75.66
62942;BME280;49042;47.318;19.874;2022-10-16T07:16:26;101252.78;;;13.10;72.93
62942;BME280;49042;47.318;19.874;2022-10-16T07:19:28;101247.84;;;13.19;71.11
62942;BME280;49042;47.318;19.874;2022-10-16T07:22:34;101255.38;;;13.91;68.43
62942;BME280;49042;47.318;19.874;2022-10-16T07:25:36;101248.00;;;15.40;60.51
62942;BME280;49042;47.318;19.874;2022-10-16T07:28:38;101239.03;;;17.06;55.86
62942;BME280;49042;47.318;19.874;2022-10-16T07:31:41;101241.22;;;18.70;49.91
62942;BME280;49042;47.318;19.874;2022-10-16T07:34:44;101250.97;;;19.93;47.17
62942;BME280;49042;47.318;19.874;2022-10-16T07:37:47;101264.44;;;20.37;44.51
62942;BME280;49042;47.318;19.874;2022-10-16T07:40:56;101246.00;;;21.30;42.39
62942;BME280;49042;47.318;19.874;2022-10-16T07:43:59;101257.37;;;21.86;40.85
62942;BME280;49042;47.318;19.874;2022-10-16T07:47:03;101260.44;;;22.88;38.32
62942;BME280;49042;47.318;19.874;2022-10-16T07:50:05;101258.81;;;22.68;37.63
62942;BME280;49042;47.318;19.874;2022-10-16T07:53:07;101274.34;;;24.12;35.66
62942;BME280;49042;47.318;19.874;2022-10-16T07:56:10;101268.97;;;24.17;35.28
62942;BME280;49042;47.318;19.874;2022-10-16T07:59:13;101282.66;;;25.17;34.21
62942;BME280;49042;47.318;19.874;2022-10-16T08:02:15;101282.72;;;23.81;35.75
62942;BME280;49042;47.318;19.874;2022-10-16T08:05:17;101283.09;;;21.66;39.97
62942;BME280;49042;47.318;19.874;2022-10-16T08:08:19;101287.03;;;19.75;44.73
62942;BME280;49042;47.318;19.874;2022-10-16T08:11:21;101285.91;;;19.37;46.32
62942;BME280;49042;47.318;19.874;2022-10-16T08:14:22;101288.09;;;18.12;50.15
62942;BME280;49042;47.318;19.874;2022-10-16T08:17:24;101300.50;;;17.57;51.78
62942;BME280;49042;47.318;19.874;2022-10-16T08:20:27;101303.34;;;17.18;54.46
62942;BME280;49042;47.318;19.874;2022-10-16T08:23:29;101309.50;;;17.18;57.06
62942;BME280;49042;47.318;19.874;2022-10-16T08:26:30;101304.50;;;17.32;54.53
62942;BME280;49042;47.318;19.874;2022-10-16T08:29:32;101306.50;;;18.80;49.65
62942;BME280;49042;47.318;19.874;2022-10-16T08:32:34;101303.22;;;22.46;40.37
62942;BME280;49042;47.318;19.874;2022-10-16T08:35:35;101301.91;;;24.78;35.31
62942;BME280;49042;47.318;19.874;2022-10-16T08:38:38;101305.03;;;27.28;31.38
62942;BME280;49042;47.318;19.874;2022-10-16T08:41:54;101306.31;;;27.11;29.91
62942;BME280;49042;47.318;19.874;2022-10-16T08:45:21;101306.00;;;27.94;28.81
62942;BME280;49042;47.318;19.874;2022-10-16T08:48:38;101309.97;;;29.28;26.82
62942;BME280;49042;47.318;19.874;2022-10-16T08:51:45;101319.19;;;28.02;27.74
62942;BME280;49042;47.318;19.874;2022-10-16T08:54:51;101316.41;;;27.72;28.22
62942;BME280;49042;47.318;19.874;2022-10-16T08:57:55;101321.50;;;28.75;26.56
62942;BME280;49042;47.318;19.874;2022-10-16T09:01:00;101315.16;;;29.60;25.77
62942;BME280;49042;47.318;19.874;2022-10-16T09:04:28;101313.97;;;30.88;24.24
62942;BME280;49042;47.318;19.874;2022-10-16T09:19:26;101334.28;;;32.02;22.42
62942;BME280;49042;47.318;19.874;2022-10-16T09:22:31;101334.28;;;32.02;22.42
62942;BME280;49042;47.318;19.874;2022-10-16T09:25:34;101338.19;;;32.15;22.31
62942;BME280;49042;47.318;19.874;2022-10-16T09:28:36;101339.53;;;33.91;20.85
62942;BME280;49042;47.318;19.874;2022-10-16T09:31:38;101351.53;;;33.85;20.47
62942;BME280;49042;47.318;19.874;2022-10-16T09:34:45;101355.47;;;32.89;21.13
62942;BME280;49042;47.318;19.874;2022-10-16T09:37:51;101351.28;;;33.01;21.35
62942;BME280;49042;47.318;19.874;2022-10-16T09:40:56;101347.31;;;31.72;22.61
62942;BME280;49042;47.318;19.874;2022-10-16T09:44:06;101342.16;;;29.82;24.28
62942;BME280;49042;47.318;19.874;2022-10-16T09:47:19;101344.06;;;27.74;27.68
62942;BME280;49042;47.318;19.874;2022-10-16T09:50:24;101331.38;;;26.27;30.31
62942;BME280;49042;47.318;19.874;2022-10-16T09:53:41;101333.94;;;24.03;33.99
62942;BME280;49042;47.318;19.874;2022-10-16T09:56:44;101342.16;;;22.61;37.27
62942;BME280;49042;47.318;19.874;2022-10-16T09:59:51;101346.78;;;21.99;38.30
62942;BME280;49042;47.318;19.874;2022-10-16T10:02:54;101339.72;;;21.73;39.80
62942;BME280;49042;47.318;19.874;2022-10-16T10:06:07;101337.09;;;21.16;40.23
62942;BME280;49042;47.318;19.874;2022-10-16T10:09:26;101343.47;;;19.69;44.28
62942;BME280;49042;47.318;19.874;2022-10-16T10:12:33;101341.75;;;19.75;44.72
62942;BME280;49042;47.318;19.874;2022-10-16T10:15:41;101347.78;;;19.58;45.02
62942;BME280;49042;47.318;19.874;2022-10-16T10:18:43;101340.00;;;19.77;45.89
62942;BME280;49042;47.318;19.874;2022-10-16T10:21:45;101347.06;;;19.78;45.24
62942;BME280;49042;47.318;19.874;2022-10-16T10:28:21;101337.91;;;19.36;47.20
62942;BME280;49042;47.318;19.874;2022-10-16T10:34:46;101332.41;;;19.14;47.89
62942;BME280;49042;47.318;19.874;2022-10-16T10:38:26;101329.28;;;18.66;48.13
62942;BME280;49042;47.318;19.874;2022-10-16T10:45:15;101325.13;;;18.90;47.61
62942;BME280;49042;47.318;19.874;2022-10-16T10:58:19;101321.06;;;19.23;47.22
62942;BME280;49042;47.318;19.874;2022-10-16T11:08:19;101316.72;;;19.32;45.42
62942;BME280;49042;47.318;19.874;2022-10-16T11:11:28;101317.63;;;19.37;46.70
62942;BME280;49042;47.318;19.874;2022-10-16T11:18:05;101313.00;;;19.12;46.05
62942;BME280;49042;47.318;19.874;2022-10-16T11:21:10;101308.78;;;19.30;46.24
62942;BME280;49042;47.318;19.874;2022-10-16T11:24:21;101297.97;;;19.08;46.14
62942;BME280;49042;47.318;19.874;2022-10-16T11:27:36;101301.53;;;19.10;46.03
62942;BME280;49042;47.318;19.874;2022-10-16T11:30:57;101299.94;;;19.28;45.67
62942;BME280;49042;47.318;19.874;2022-10-16T11:34:27;101294.94;;;19.64;44.97
62942;BME280;49042;47.318;19.874;2022-10-16T11:37:39;101304.56;;;19.53;44.77
62942;BME280;49042;47.318;19.874;2022-10-16T11:40:43;101299.81;;;19.17;44.33
62942;BME280;49042;47.318;19.874;2022-10-16T11:47:31;101307.47;;;18.86;45.16
62942;BME280;49042;47.318;19.874;2022-10-16T11:54:32;101298.19;;;19.29;45.38
62942;BME280;49042;47.318;19.874;2022-10-16T11:57:45;101293.09;;;19.54;45.61
62942;BME280;49042;47.318;19.874;2022-10-16T12:04:26;101297.50;;;19.58;43.80
62942;BME280;49042;47.318;19.874;2022-10-16T12:11:19;101292.09;;;19.39;45.26
62942;BME280;49042;47.318;19.874;2022-10-16T12:17:58;101300.41;;;19.96;42.49
62942;BME280;49042;47.318;19.874;2022-10-16T12:21:00;101296.91;;;20.01;42.84
62942;BME280;49042;47.318;19.874;2022-10-16T12:24:39;101298.59;;;19.85;43.37
62942;BME280;49042;47.318;19.874;2022-10-16T12:27:42;101290.69;;;19.92;44.29
62942;BME280;49042;47.318;19.874;2022-10-16T12:30:52;101289.75;;;19.86;43.55
62942;BME280;49042;47.318;19.874;2022-10-16T12:34:00;101290.56;;;19.71;43.79
62942;BME280;49042;47.318;19.874;2022-10-16T12:37:33;101294.22;;;19.92;44.24
62942;BME280;49042;47.318;19.874;2022-10-16T12:40:37;101285.38;;;19.92;43.46
62942;BME280;49042;47.318;19.874;2022-10-16T12:43:46;101279.09;;;19.75;43.64
62942;BME280;49042;47.318;19.874;2022-10-16T12:46:48;101279.88;;;19.58;44.26
62942;BME280;49042;47.318;19.874;2022-10-16T12:49:54;101286.94;;;19.61;44.13
62942;BME280;49042;47.318;19.874;2022-10-16T12:52:57;101286.97;;;19.60;44.50
62942;BME280;49042;47.318;19.874;2022-10-16T12:56:16;101294.13;;;19.76;45.04
62942;BME280;49042;47.318;19.874;2022-10-16T13:24:01;101280.81;;;19.68;44.13
62942;BME280;49042;47.318;19.874;2022-10-16T13:29:34;101290.06;;;20.46;42.68
62942;BME280;49042;47.318;19.874;2022-10-16T13:32:36;101292.72;;;20.41;42.70
62942;BME280;49042;47.318;19.874;2022-10-16T13:35:50;101281.31;;;20.93;40.84
62942;BME280;49042;47.318;19.874;2022-10-16T13:39:12;101286.25;;;22.66;37.95
62942;BME280;49042;47.318;19.874;2022-10-16T13:42:26;101284.34;;;26.18;31.21
62942;BME280;49042;47.318;19.874;2022-10-16T13:45:28;101282.13;;;29.56;26.17
62942;BME280;49042;47.318;19.874;2022-10-16T13:48:32;101292.13;;;32.40;22.75
62942;BME280;49042;47.318;19.874;2022-10-16T13:51:34;101290.31;;;32.40;22.19
62942;BME280;49042;47.318;19.874;2022-10-16T13:54:36;101285.81;;;31.60;22.74
62942;BME280;49042;47.318;19.874;2022-10-16T13:57:38;101297.63;;;31.36;22.54
62942;BME280;49042;47.318;19.874;2022-10-16T14:00:53;101291.75;;;31.68;22.05
62942;BME280;49042;47.318;19.874;2022-10-16T14:04:02;101299.59;;;32.13;21.61
62942;BME280;49042;47.318;19.874;2022-10-16T14:07:05;101301.72;;;33.38;20.33
62942;BME280;49042;47.318;19.874;2022-10-16T14:10:22;101309.41;;;33.28;20.09
62942;BME280;49042;47.318;19.874;2022-10-16T14:13:36;101307.91;;;33.40;20.33
62942;BME280;49042;47.318;19.874;2022-10-16T14:16:40;101307.84;;;33.41;20.55
62942;BME280;49042;47.318;19.874;2022-10-16T14:19:48;101302.69;;;31.84;21.79
62942;BME280;49042;47.318;19.874;2022-10-16T14:23:23;101305.31;;;27.87;26.73
62942;BME280;49042;47.318;19.874;2022-10-16T14:26:41;101304.47;;;25.43;30.24
62942;BME280;49042;47.318;19.874;2022-10-16T14:29:50;101317.06;;;24.04;32.85
62942;BME280;49042;47.318;19.874;2022-10-16T14:33:03;101312.97;;;22.47;35.67
62942;BME280;49042;47.318;19.874;2022-10-16T14:39:19;101322.88;;;20.97;39.26
62942;BME280;49042;47.318;19.874;2022-10-16T14:42:24;101321.94;;;20.67;41.21
62942;BME280;49042;47.318;19.874;2022-10-16T14:45:32;101324.50;;;20.43;40.54
62942;BME280;49042;47.318;19.874;2022-10-16T14:48:34;101325.19;;;20.09;41.83
62942;BME280;49042;47.318;19.874;2022-10-16T14:51:38;101328.66;;;19.97;41.68
62942;BME280;49042;47.318;19.874;2022-10-16T14:54:40;101322.38;;;19.77;42.59
62942;BME280;49042;47.318;19.874;2022-10-16T14:57:43;101308.91;;;19.46;43.86
62942;BME280;49042;47.318;19.874;2022-10-16T15:00:46;101318.66;;;19.53;44.12
62942;BME280;49042;47.318;19.874;2022-10-16T15:03:48;101327.44;;;19.46;44.85
62942;BME280;49042;47.318;19.874;2022-10-16T15:06:50;101336.03;;;19.23;48.61
62942;BME280;49042;47.318;19.874;2022-10-16T15:09:52;101334.13;;;19.12;46.95
62942;BME280;49042;47.318;19.874;2022-10-16T15:12:55;101341.00;;;18.94;47.44
62942;BME280;49042;47.318;19.874;2022-10-16T15:15:56;101339.31;;;19.00;47.87
62942;BME280;49042;47.318;19.874;2022-10-16T15:18:59;101336.53;;;18.86;48.62
62942;BME280;49042;47.318;19.874;2022-10-16T15:22:01;101333.69;;;18.68;49.37
62942;BME280;49042;47.318;19.874;2022-10-16T15:25:31;101331.00;;;18.64;49.98
62942;BME280;49042;47.318;19.874;2022-10-16T15:28:31;101335.22;;;18.49;52.14
62942;BME280;49042;47.318;19.874;2022-10-16T15:31:33;101343.28;;;17.96;54.46
62942;BME280;49042;47.318;19.874;2022-10-16T15:34:35;101342.09;;;17.75;55.10
62942;BME280;49042;47.318;19.874;2022-10-16T15:37:37;101347.41;;;17.78;55.41
62942;BME280;49042;47.318;19.874;2022-10-16T15:40:39;101348.75;;;17.51;56.34
62942;BME280;49042;47.318;19.874;2022-10-16T15:43:41;101350.16;;;17.30;57.43
62942;BME280;49042;47.318;19.874;2022-10-16T15:46:46;101346.31;;;17.12;58.09
62942;BME280;49042;47.318;19.874;2022-10-16T15:49:48;101356.97;;;17.18;58.62
62942;BME280;49042;47.318;19.874;2022-10-16T15:52:50;101348.94;;;17.12;58.84
62942;BME280;49042;47.318;19.874;2022-10-16T15:55:52;101365.37;;;16.98;58.70
62942;BME280;49042;47.318;19.874;2022-10-16T15:58:55;101370.50;;;16.90;59.40
62942;BME280;49042;47.318;19.874;2022-10-16T16:01:57;101364.22;;;16.84;60.30
62942;BME280;49042;47.318;19.874;2022-10-16T16:04:59;101361.12;;;16.60;60.88
62942;BME280;49042;47.318;19.874;2022-10-16T16:08:01;101371.00;;;16.29;62.73
62942;BME280;49042;47.318;19.874;2022-10-16T16:11:11;101371.56;;;16.15;63.42
62942;BME280;49042;47.318;19.874;2022-10-16T16:14:16;101361.91;;;16.14;63.21
62942;BME280;49042;47.318;19.874;2022-10-16T16:17:18;101367.44;;;15.89;63.62
62942;BME280;49042;47.318;19.874;2022-10-16T16:20:19;101373.97;;;15.68;65.07
62942;BME280;49042;47.318;19.874;2022-10-16T16:23:24;101365.53;;;15.83;65.03
62942;BME280;49042;47.318;19.874;2022-10-16T16:26:28;101375.47;;;15.95;64.13
62942;BME280;49042;47.318;19.874;2022-10-16T16:29:35;101382.56;;;15.98;64.54
62942;BME280;49042;47.318;19.874;2022-10-16T16:32:37;101383.88;;;15.79;65.60
62942;BME280;49042;47.318;19.874;2022-10-16T16:35:38;101386.72;;;15.52;66.41
62942;BME280;49042;47.318;19.874;2022-10-16T16:38:41;101397.38;;;15.25;68.11
62942;BME280;49042;47.318;19.874;2022-10-16T16:41:43;101408.88;;;15.28;67.95
62942;BME280;49042;47.318;19.874;2022-10-16T16:44:47;101410.97;;;15.40;67.58
62942;BME280;49042;47.318;19.874;2022-10-16T16:47:49;101407.63;;;15.48;67.30
62942;BME280;49042;47.318;19.874;2022-10-16T16:50:51;101420.44;;;15.35;67.59
62942;BME280;49042;47.318;19.874;2022-10-16T16:53:53;101423.97;;;15.36;67.37
62942;BME280;49042;47.318;19.874;2022-10-16T16:56:55;101431.69;;;15.29;68.11
62942;BME280;49042;47.318;19.874;2022-10-16T16:59:57;101440.13;;;14.88;69.97
62942;BME280;49042;47.318;19.874;2022-10-16T17:02:59;101436.34;;;14.78;70.58
62942;BME280;49042;47.318;19.874;2022-10-16T17:09:07;101445.88;;;15.04;69.00
62942;BME280;49042;47.318;19.874;2022-10-16T17:12:10;101452.41;;;14.87;69.47
62942;BME280;49042;47.318;19.874;2022-10-16T17:15:13;101451.78;;;14.96;69.27
62942;BME280;49042;47.318;19.874;2022-10-16T17:18:16;101461.84;;;14.82;70.25
62942;BME280;49042;47.318;19.874;2022-10-16T17:21:19;101458.97;;;14.73;70.25
62942;BME280;49042;47.318;19.874;2022-10-16T17:24:22;101460.91;;;14.51;71.76
62942;BME280;49042;47.318;19.874;2022-10-16T17:27:24;101471.59;;;14.57;71.65
62942;BME280;49042;47.318;19.874;2022-10-16T17:30:26;101472.12;;;14.45;72.89
62942;BME280;49042;47.318;19.874;2022-10-16T17:33:29;101479.59;;;14.32;73.26
62942;BME280;49042;47.318;19.874;2022-10-16T17:36:34;101472.16;;;14.47;72.44
62942;BME280;49042;47.318;19.874;2022-10-16T17:39:37;101471.00;;;14.38;72.16